Time;durP1;ratioP1;P1;durP2;ratioP2;P2;SDS_P1;SDS_P2;PMS_P1;PMS_P2;Temp;Humidity;BMP_temperature;BMP_pressure;BME280_temperature;BME280_humidity;BME280_pressure;Samples;Min_cycle;Max_cycle;Signal;HPM_P1;HPM_P2
2022/11/02 00:02:03;;;;;;;2.53;1.00;;;12.80;99.90;;;;;;5102528;28;20379;-42
2022/11/02 00:04:29;;;;;;;10.15;1.00;;;12.80;99.90;;;;;;5108527;28;20028;-42
2022/11/02 00:06:54;;;;;;;10.35;1.60;;;12.80;99.90;;;;;;5108728;28;20020;-42
2022/11/02 00:09:20;;;;;;;4.30;1.23;;;12.70;99.90;;;;;;5116032;28;20023;-40
2022/11/02 00:11:46;;;;;;;3.55;1.08;;;12.70;99.90;;;;;;5099316;28;20090;-42
2022/11/02 00:14:11;;;;;;;3.08;1.05;;;12.70;99.90;;;;;;5110800;28;20528;-46
2022/11/02 00:16:39;;;;;;;3.60;0.70;;;12.70;99.90;;;;;;5097355;28;20108;-41
2022/11/02 00:19:06;;;;;;;7.90;0.95;;;12.70;99.90;;;;;;5102119;28;20069;-40
2022/11/02 00:21:33;;;;;;;3.58;0.88;;;12.70;99.90;;;;;;5095646;28;20024;-39
2022/11/02 00:23:59;;;;;;;3.58;0.82;;;12.70;99.90;;;;;;5096706;28;20446;-44
2022/11/02 00:26:26;;;;;;;12.10;1.02;;;12.70;99.90;;;;;;5098491;28;20031;-40
2022/11/02 00:28:53;;;;;;;8.77;0.93;;;12.80;99.90;;;;;;5097924;28;20537;-41
2022/11/02 00:31:19;;;;;;;9.53;1.13;;;12.80;99.90;;;;;;5107911;28;20507;-42
2022/11/02 00:33:47;;;;;;;6.88;1.10;;;12.80;99.90;;;;;;5112689;28;20028;-32
2022/11/02 00:36:13;;;;;;;8.88;1.33;;;12.80;99.90;;;;;;5112053;28;20219;-34
2022/11/02 00:38:58;;;;;;;17.30;1.60;;;12.80;99.90;;;;;;5113673;28;20015;-36
2022/11/02 00:41:26;;;;;;;5.03;0.98;;;12.80;99.90;;;;;;5095008;28;20024;-35
2022/11/02 00:43:52;;;;;;;11.38;1.70;;;12.80;99.90;;;;;;5095210;28;20047;-35
2022/11/02 00:46:19;;;;;;;7.68;1.80;;;12.80;99.90;;;;;;5102206;28;20019;-34
2022/11/02 00:48:44;;;;;;;6.28;1.55;;;12.90;99.90;;;;;;5101907;28;20454;-41
2022/11/02 00:51:10;;;;;;;5.75;0.98;;;13.00;99.90;;;;;;5097646;28;20032;-36
2022/11/02 00:53:35;;;;;;;8.00;1.67;;;13.00;99.90;;;;;;5102347;28;20387;-35
2022/11/02 00:56:01;;;;;;;9.32;0.85;;;13.00;99.90;;;;;;5095166;28;20043;-33
2022/11/02 00:58:26;;;;;;;4.53;0.90;;;13.00;99.90;;;;;;5097172;28;20036;-36
2022/11/02 01:00:52;;;;;;;5.53;1.05;;;12.90;99.90;;;;;;5095439;28;20030;-31
2022/11/02 01:03:17;;;;;;;4.53;0.75;;;12.60;99.90;;;;;;5103686;28;20023;-56
2022/11/02 01:05:43;;;;;;;6.43;0.50;;;12.50;99.90;;;;;;5106964;28;20503;-32
2022/11/02 01:08:09;;;;;;;6.13;1.27;;;12.40;99.90;;;;;;5111277;27;20034;-35
2022/11/02 01:10:34;;;;;;;3.05;0.57;;;12.30;99.90;;;;;;5105958;27;20103;-40
2022/11/02 01:13:00;;;;;;;2.35;0.40;;;12.20;99.90;;;;;;5112438;28;20024;-39
2022/11/02 01:15:26;;;;;;;3.50;0.55;;;12.10;99.90;;;;;;5104401;28;20428;-40
2022/11/02 01:17:51;;;;;;;2.05;0.57;;;12.00;99.90;;;;;;5094607;28;20050;-37
2022/11/02 01:20:17;;;;;;;4.65;0.70;;;12.00;99.90;;;;;;5101826;28;20540;-33
2022/11/02 01:22:42;;;;;;;3.78;0.70;;;11.90;99.90;;;;;;5114294;28;20024;-38
2022/11/02 01:25:08;;;;;;;3.17;0.40;;;11.90;99.90;;;;;;5103225;28;20024;-35
2022/11/02 01:27:34;;;;;;;3.78;0.45;;;11.90;99.90;;;;;;5114261;28;20088;-37
2022/11/02 01:29:59;;;;;;;2.15;0.60;;;11.80;99.90;;;;;;5095964;28;20024;-35
2022/11/02 01:32:28;;;;;;;2.58;0.52;;;11.80;99.90;;;;;;5100296;28;20467;-40
2022/11/02 01:34:53;;;;;;;4.50;0.25;;;11.70;99.90;;;;;;5111652;28;20067;-41
2022/11/02 01:37:19;;;;;;;1.70;0.30;;;11.60;99.90;;;;;;5114227;28;20059;-43
2022/11/02 01:39:45;;;;;;;8.18;0.50;;;11.60;99.90;;;;;;5109595;28;20031;-34
2022/11/02 01:42:19;;;;;;;4.82;0.20;;;11.50;99.90;;;;;;5093724;28;20031;-32
2022/11/02 01:44:45;;;;;;;7.57;1.67;;;11.50;99.90;;;;;;5103782;28;20114;-34
2022/11/02 01:47:31;;;;;;;2.15;0.40;;;11.30;99.90;;;;;;5097994;28;20055;-46
2022/11/02 01:50:09;;;;;;;2.13;0.93;;;11.30;99.90;;;;;;5097894;28;20031;-43
2022/11/02 01:52:36;;;;;;;1.45;0.20;;;11.20;99.90;;;;;;5113988;28;20088;-35
2022/11/02 01:55:13;;;;;;;7.23;1.50;;;11.10;99.90;;;;;;5109091;28;20089;-36
2022/11/02 01:57:42;;;;;;;2.10;0.75;;;11.10;99.90;;;;;;5093229;28;20718;-33
2022/11/02 02:00:14;;;;;;;6.55;0.50;;;11.10;99.90;;;;;;5093164;28;20079;-36
2022/11/02 02:03:02;;;;;;;8.88;0.47;;;11.00;99.90;;;;;;5095014;28;20492;-32
2022/11/02 02:05:28;;;;;;;;;;;11.00;99.90;;;;;;5093737;28;20028;-38
2022/11/02 02:07:55;;;;;;;8.10;1.25;;;10.90;99.90;;;;;;5093404;28;19918;-38
2022/11/02 02:10:21;;;;;;;3.15;0.90;;;10.90;99.90;;;;;;5093896;28;20073;-48
2022/11/02 02:12:47;;;;;;;10.52;0.82;;;11.00;99.90;;;;;;5104093;28;20032;-34
2022/11/02 02:15:13;;;;;;;1.95;0.60;;;10.90;99.90;;;;;;5101066;28;20047;-34
2022/11/02 02:17:51;;;;;;;4.60;0.70;;;11.00;99.90;;;;;;5112555;28;20035;-40
2022/11/02 02:20:54;;;;;;;3.55;0.55;;;11.00;99.90;;;;;;5101819;28;20032;-40
2022/11/02 02:23:30;;;;;;;6.40;0.77;;;11.00;99.90;;;;;;5078648;28;20553;-34
2022/11/02 02:26:06;;;;;;;4.97;0.85;;;11.00;99.90;;;;;;5105163;28;20039;-35
2022/11/02 02:28:45;;;;;;;6.25;0.70;;;11.10;99.90;;;;;;5100404;28;20555;-32
2022/11/02 02:31:26;;;;;;;6.55;0.80;;;11.20;99.90;;;;;;5112250;28;20032;-33
2022/11/02 02:34:18;;;;;;;23.00;1.05;;;11.20;99.90;;;;;;5113323;28;20490;-33
2022/11/02 02:36:48;;;;;;;10.70;1.10;;;11.30;99.90;;;;;;5109374;28;20043;-35
2022/11/02 02:39:30;;;;;;;3.60;1.00;;;11.30;99.90;;;;;;5097005;28;20024;-32
2022/11/02 02:42:21;;;;;;;6.72;0.80;;;11.40;99.90;;;;;;5097219;28;20028;-36
2022/11/02 02:44:58;;;;;;;8.32;1.92;;;11.50;99.90;;;;;;5096463;28;20499;-36
2022/11/02 02:47:28;;;;;;;4.70;0.80;;;11.50;99.90;;;;;;5113128;28;20048;-35
2022/11/02 02:50:01;;;;;;;7.20;1.05;;;11.60;99.90;;;;;;5106042;28;20388;-33
2022/11/02 02:52:29;;;;;;;5.18;0.63;;;11.70;99.90;;;;;;5092458;28;20077;-32
2022/11/02 02:54:57;;;;;;;;;;;11.70;99.90;;;;;;5093867;28;20036;-37
2022/11/02 02:57:26;;;;;;;4.95;0.88;;;11.70;99.90;;;;;;5092513;28;19912;-35
2022/11/02 02:59:53;;;;;;;4.25;0.77;;;11.70;99.90;;;;;;5092756;28;20052;-32
2022/11/02 03:02:29;;;;;;;14.20;2.35;;;11.80;99.90;;;;;;5102294;28;20081;-37
2022/11/02 03:04:54;;;;;;;2.30;1.00;;;11.80;99.90;;;;;;5113174;28;20032;-34
2022/11/02 03:07:29;;;;;;;12.75;1.67;;;11.80;99.90;;;;;;5097143;28;20111;-37
2022/11/02 03:10:15;;;;;;;7.80;1.15;;;11.90;99.90;;;;;;5092724;28;20073;-35
2022/11/02 03:13:06;;;;;;;4.45;1.10;;;11.90;99.90;;;;;;5100043;28;20038;-37
2022/11/02 03:15:58;;;;;;;8.60;1.08;;;12.00;99.90;;;;;;5098999;28;20036;-34
2022/11/02 03:18:32;;;;;;;3.40;1.63;;;12.00;99.90;;;;;;5092641;28;20111;-51
2022/11/02 03:21:40;;;;;;;8.82;1.48;;;12.00;99.90;;;;;;5097305;28;20048;-55
2022/11/02 03:24:23;;;;;;;5.13;0.70;;;12.00;99.90;;;;;;5092610;28;20028;-38
2022/11/02 03:26:58;;;;;;;8.55;1.55;;;12.00;99.90;;;;;;5091224;28;20115;-32
2022/11/02 03:29:31;;;;;;;4.60;1.13;;;12.00;99.90;;;;;;5093310;28;20039;-33
2022/11/02 03:32:10;;;;;;;8.07;1.15;;;12.00;99.90;;;;;;5093111;28;20484;-38
2022/11/02 03:34:45;;;;;;;9.20;1.35;;;12.00;99.90;;;;;;5103075;28;20040;-31
2022/11/02 03:37:27;;;;;;;6.35;1.63;;;12.00;99.90;;;;;;5113434;28;20506;-36
2022/11/02 03:40:02;;;;;;;8.20;0.80;;;12.00;99.90;;;;;;5115498;28;20055;-37
2022/11/02 03:42:30;;;;;;;5.07;1.38;;;12.00;99.90;;;;;;5098775;28;20020;-37
2022/11/02 03:45:02;;;;;;;8.63;1.20;;;12.00;99.90;;;;;;5111476;28;20502;-35
2022/11/02 03:47:32;;;;;;;3.67;1.23;;;12.00;99.90;;;;;;5113304;28;20062;-32
2022/11/02 03:49:59;;;;;;;10.27;0.98;;;12.00;99.90;;;;;;5099142;28;20476;-35
2022/11/02 03:52:29;;;;;;;7.15;1.55;;;12.10;99.90;;;;;;5109196;28;20106;-42
2022/11/02 03:55:04;;;;;;;5.10;1.73;;;12.10;99.90;;;;;;5109582;28;20537;-33
2022/11/02 03:57:51;;;;;;;13.52;1.80;;;12.10;99.90;;;;;;5101799;28;20514;-33
2022/11/02 04:00:22;;;;;;;12.43;1.63;;;12.20;99.90;;;;;;5103415;28;20475;-34
2022/11/02 04:02:52;;;;;;;15.35;2.05;;;12.20;99.90;;;;;;5099019;28;20031;-31
2022/11/02 04:05:19;;;;;;;7.97;1.50;;;12.20;99.90;;;;;;5095805;28;20074;-42
2022/11/02 04:10:33;;;;;;;16.20;1.50;;;12.30;99.90;;;;;;5111950;28;20070;-45
2022/11/02 04:15:43;;;;;;;13.88;1.83;;;12.20;99.90;;;;;;5102689;28;20126;-43
2022/11/02 04:20:52;;;;;;;10.32;1.70;;;12.20;99.90;;;;;;5095801;28;20129;-40
2022/11/02 04:26:03;;;;;;;3.40;1.13;;;12.20;99.90;;;;;;5105409;28;20057;-43
2022/11/02 04:28:29;;;;;;;10.48;1.38;;;12.20;99.90;;;;;;5097807;28;20492;-41
2022/11/02 04:30:58;;;;;;;5.82;1.38;;;12.20;99.90;;;;;;5115050;28;20052;-35
2022/11/02 04:33:33;;;;;;;5.45;1.17;;;12.20;99.90;;;;;;5099745;28;20058;-37
2022/11/02 04:36:05;;;;;;;10.45;1.60;;;12.20;99.90;;;;;;5095235;28;20530;-40
2022/11/02 04:38:40;;;;;;;11.45;0.90;;;12.20;99.90;;;;;;5114993;28;20382;-41
2022/11/02 04:44:00;;;;;;;13.55;2.55;;;12.20;99.90;;;;;;5100630;28;20031;-40
2022/11/02 04:46:28;;;;;;;12.68;1.63;;;12.20;99.90;;;;;;5104903;28;20028;-36
2022/11/02 04:48:55;;;;;;;9.30;1.45;;;12.30;99.90;;;;;;5105749;28;20396;-37
2022/11/02 04:51:21;;;;;;;4.50;1.73;;;12.20;99.90;;;;;;5096482;28;20024;-31
2022/11/02 04:53:48;;;;;;;8.45;1.75;;;12.10;99.90;;;;;;5103239;28;20055;-36
2022/11/02 04:56:14;;;;;;;8.52;1.50;;;12.10;99.90;;;;;;5098421;28;20036;-36
2022/11/02 04:58:40;;;;;;;10.13;2.05;;;12.10;99.90;;;;;;5100342;28;20054;-36
2022/11/02 05:01:14;;;;;;;16.60;2.13;;;12.10;99.90;;;;;;5101162;28;20495;-41
2022/11/02 05:03:40;;;;;;;2.03;0.68;;;12.00;99.90;;;;;;5094978;28;20038;-36
2022/11/02 05:06:06;;;;;;;13.07;1.75;;;12.00;99.90;;;;;;5094112;28;20027;-34
2022/11/02 05:08:32;;;;;;;11.30;1.52;;;12.00;99.90;;;;;;5111448;28;20498;-33
2022/11/02 05:10:58;;;;;;;8.85;0.90;;;12.00;99.90;;;;;;5095464;28;20108;-31
2022/11/02 05:13:25;;;;;;;20.08;2.30;;;12.00;99.90;;;;;;5097524;28;20028;-34
2022/11/02 05:15:54;;;;;;;10.93;1.35;;;11.90;99.90;;;;;;5110814;28;20036;-34
2022/11/02 05:18:19;;;;;;;10.45;1.35;;;11.90;99.90;;;;;;5093557;28;20052;-34
2022/11/02 05:21:05;;;;;;;13.98;2.30;;;11.90;99.90;;;;;;5103815;28;20062;-38
2022/11/02 05:23:31;;;;;;;16.15;2.22;;;11.90;99.90;;;;;;5113438;28;20403;-36
2022/11/02 05:25:59;;;;;;;11.25;1.25;;;11.90;99.90;;;;;;5109482;28;20023;-35
2022/11/02 05:28:25;;;;;;;8.68;1.85;;;11.80;99.90;;;;;;5106612;28;20467;-35
2022/11/02 05:30:52;;;;;;;8.25;1.05;;;11.80;99.90;;;;;;5099874;28;20081;-39
2022/11/02 05:33:18;;;;;;;12.90;1.75;;;11.90;99.90;;;;;;5101516;28;20034;-31
2022/11/02 05:35:44;;;;;;;14.55;2.17;;;11.90;99.90;;;;;;5113110;27;20531;-35
2022/11/02 05:38:10;;;;;;;12.32;1.38;;;11.90;99.90;;;;;;5103324;28;20106;-30
2022/11/02 05:40:39;;;;;;;4.80;0.90;;;12.00;99.90;;;;;;5114269;28;20468;-35
2022/11/02 05:43:07;;;;;;;5.55;1.27;;;11.90;99.90;;;;;;5094311;28;20052;-36
2022/11/02 05:45:32;;;;;;;14.40;2.45;;;11.90;99.90;;;;;;5092521;28;20510;-39
2022/11/02 05:48:02;;;;;;;10.27;1.25;;;11.90;99.90;;;;;;5093787;28;20020;-38
2022/11/02 05:50:28;;;;;;;9.95;1.33;;;11.90;99.90;;;;;;5105492;28;20028;-39
2022/11/02 05:52:54;;;;;;;12.23;2.70;;;11.90;99.90;;;;;;5093833;28;20046;-40
2022/11/02 05:55:21;;;;;;;10.18;1.48;;;12.00;99.90;;;;;;5093176;28;20035;-39
2022/11/02 05:57:53;;;;;;;8.00;1.58;;;11.90;99.90;;;;;;5095169;28;20031;-40
2022/11/02 06:00:20;;;;;;;9.80;1.20;;;11.90;99.90;;;;;;5109458;28;20122;-40
2022/11/02 06:02:47;;;;;;;9.23;1.65;;;11.90;99.90;;;;;;5101077;28;20024;-39
2022/11/02 06:05:13;;;;;;;8.80;1.52;;;11.90;99.90;;;;;;5110403;28;20647;-42
2022/11/02 06:07:39;;;;;;;7.05;1.30;;;11.90;99.90;;;;;;5107504;28;20115;-41
2022/11/02 06:10:05;;;;;;;13.05;1.35;;;11.90;99.90;;;;;;5094941;28;20115;-40
2022/11/02 06:12:30;;;;;;;7.28;1.48;;;11.80;99.90;;;;;;5105682;28;20055;-44
2022/11/02 06:14:56;;;;;;;6.85;1.02;;;11.80;99.90;;;;;;5111295;28;20054;-41
2022/11/02 06:17:21;;;;;;;8.38;1.20;;;11.80;99.90;;;;;;5093794;28;20035;-40
2022/11/02 06:19:47;;;;;;;14.23;1.58;;;11.80;99.90;;;;;;5093272;28;20028;-40
2022/11/02 06:22:13;;;;;;;13.30;2.25;;;11.80;99.90;;;;;;5093053;28;20020;-43
2022/11/02 06:24:38;;;;;;;11.45;1.48;;;11.80;99.90;;;;;;5105611;28;20444;-40
2022/11/02 06:27:04;;;;;;;4.60;1.20;;;11.70;99.90;;;;;;5093497;28;20031;-45
2022/11/02 06:29:30;;;;;;;5.55;0.80;;;11.70;99.90;;;;;;5093069;28;20024;-41
2022/11/02 06:31:55;;;;;;;8.82;1.02;;;11.60;99.90;;;;;;5096581;28;20035;-40
2022/11/02 06:34:21;;;;;;;1.88;0.90;;;11.60;99.90;;;;;;5113418;28;20356;-39
2022/11/02 06:36:46;;;;;;;4.68;0.90;;;11.60;99.90;;;;;;5093658;28;20028;-40
2022/11/02 06:39:12;;;;;;;8.85;0.98;;;11.60;99.90;;;;;;5092427;28;20023;-40
2022/11/02 06:41:37;;;;;;;6.57;0.80;;;11.60;99.90;;;;;;5097551;28;20503;-42
2022/11/02 06:44:03;;;;;;;5.95;0.65;;;11.60;99.90;;;;;;5107530;28;20483;-40
2022/11/02 06:46:29;;;;;;;11.45;0.80;;;11.60;99.90;;;;;;5113148;28;20055;-41
2022/11/02 06:48:54;;;;;;;2.13;0.38;;;11.70;99.90;;;;;;5107800;28;20031;-41
2022/11/02 06:51:20;;;;;;;10.20;1.23;;;11.70;99.90;;;;;;5108960;28;20545;-43
2022/11/02 06:53:46;;;;;;;12.82;1.17;;;11.70;99.90;;;;;;5094911;28;20488;-40
2022/11/02 06:56:11;;;;;;;3.70;0.90;;;11.70;99.90;;;;;;5091546;28;20031;-42
2022/11/02 06:58:37;;;;;;;9.95;1.23;;;11.70;99.90;;;;;;5104272;28;20086;-40
2022/11/02 07:01:06;;;;;;;7.53;1.02;;;11.70;99.90;;;;;;5127968;28;20015;-41
2022/11/02 07:03:32;;;;;;;8.60;0.70;;;11.70;99.90;;;;;;5133758;28;20098;-39
2022/11/02 07:05:58;;;;;;;7.22;0.85;;;11.70;99.90;;;;;;5118835;28;20487;-41
2022/11/02 07:08:24;;;;;;;9.02;1.00;;;11.70;99.90;;;;;;5106625;28;20019;-40
2022/11/02 07:10:49;;;;;;;5.65;1.15;;;11.80;99.90;;;;;;5111911;28;20027;-35
2022/11/02 07:13:15;;;;;;;9.30;0.68;;;11.80;99.90;;;;;;5105802;28;20055;-43
2022/11/02 07:15:42;;;;;;;10.02;1.10;;;11.80;99.90;;;;;;5105430;28;20024;-41
2022/11/02 07:18:07;;;;;;;7.05;1.10;;;11.90;99.90;;;;;;5117126;28;20471;-40
2022/11/02 07:20:34;;;;;;;7.55;1.83;;;11.90;99.90;;;;;;5116895;28;20023;-59
2022/11/02 07:23:00;;;;;;;7.13;1.58;;;11.80;99.90;;;;;;5111938;28;20127;-39
2022/11/02 07:25:29;;;;;;;3.17;0.88;;;11.80;99.90;;;;;;5101659;28;20516;-40
2022/11/02 07:27:56;;;;;;;3.85;0.60;;;11.80;99.90;;;;;;5116846;28;20024;-40
2022/11/02 07:30:21;;;;;;;3.45;0.55;;;11.80;99.90;;;;;;5116667;28;20397;-44
2022/11/02 07:32:47;;;;;;;5.18;1.45;;;11.90;99.90;;;;;;5115277;28;20383;-41
2022/11/02 07:35:14;;;;;;;12.68;0.85;;;11.80;99.90;;;;;;5116975;28;20027;-53
2022/11/02 07:37:40;;;;;;;13.05;1.60;;;11.80;99.90;;;;;;5116705;27;20578;-41
2022/11/02 07:40:08;;;;;;;8.10;1.85;;;11.90;99.90;;;;;;5114777;28;20035;-39
2022/11/02 07:42:34;;;;;;;9.80;1.40;;;11.80;99.90;;;;;;5109909;27;20396;-41
2022/11/02 07:45:00;;;;;;;7.85;0.85;;;11.80;99.90;;;;;;5096243;28;20526;-40
2022/11/02 07:47:26;;;;;;;8.48;0.90;;;11.90;99.90;;;;;;5096070;28;20020;-39
2022/11/02 07:49:52;;;;;;;8.75;0.82;;;11.90;99.90;;;;;;5096300;28;20384;-41
2022/11/02 07:52:17;;;;;;;2.97;0.63;;;11.90;99.90;;;;;;5107014;28;20031;-38
2022/11/02 07:54:43;;;;;;;10.07;1.38;;;12.00;99.90;;;;;;5097585;28;20035;-40
2022/11/02 07:57:09;;;;;;;5.40;1.50;;;12.00;99.90;;;;;;5098069;28;20103;-40
2022/11/02 07:59:35;;;;;;;4.95;0.70;;;12.00;99.90;;;;;;5097176;28;20415;-38
2022/11/02 08:02:01;;;;;;;6.78;0.68;;;12.10;99.90;;;;;;5102403;28;20020;-41
2022/11/02 08:04:27;;;;;;;3.15;1.15;;;12.10;99.90;;;;;;5114658;28;20376;-38
2022/11/02 08:06:52;;;;;;;3.17;1.30;;;12.20;99.90;;;;;;5106181;28;20024;-34
2022/11/02 08:09:18;;;;;;;8.25;1.58;;;12.20;99.90;;;;;;5096629;28;20032;-32
2022/11/02 08:11:43;;;;;;;14.55;1.83;;;12.20;99.90;;;;;;5098410;28;20063;-31
2022/11/02 08:14:09;;;;;;;4.97;0.75;;;12.30;99.90;;;;;;5101984;28;20476;-32
2022/11/02 08:16:35;;;;;;;6.50;0.98;;;12.40;99.90;;;;;;5112028;28;20039;-35
2022/11/02 08:19:01;;;;;;;4.65;0.90;;;12.40;99.90;;;;;;5115536;28;20047;-37
2022/11/02 08:21:26;;;;;;;8.38;1.35;;;12.40;99.90;;;;;;5114245;28;20020;-32
2022/11/02 08:23:54;;;;;;;7.55;1.85;;;12.50;99.90;;;;;;5113688;28;20028;-38
2022/11/02 08:26:19;;;;;;;2.35;0.57;;;12.50;99.90;;;;;;5103839;27;20016;-35
2022/11/02 08:28:45;;;;;;;16.52;1.73;;;12.60;99.90;;;;;;5100106;27;20032;-30
2022/11/02 08:31:14;;;;;;;7.35;1.00;;;12.60;99.90;;;;;;5095470;28;20095;-41
2022/11/02 08:33:43;;;;;;;6.07;1.20;;;12.70;99.90;;;;;;5102703;28;20375;-39
2022/11/02 08:36:10;;;;;;;6.38;0.98;;;12.70;99.90;;;;;;5131721;27;20019;-38
2022/11/02 08:38:36;;;;;;;10.85;1.45;;;12.80;99.90;;;;;;5096611;27;20054;-39
2022/11/02 08:41:02;;;;;;;13.77;1.67;;;12.80;99.90;;;;;;5095467;28;20472;-39
2022/11/02 08:43:27;;;;;;;6.85;0.88;;;12.90;99.90;;;;;;5101366;27;20471;-40
2022/11/02 08:45:58;;;;;;;5.47;1.25;;;12.90;99.90;;;;;;5134696;27;20027;-41
2022/11/02 08:48:23;;;;;;;5.13;1.33;;;13.00;99.90;;;;;;5116977;27;20042;-40
2022/11/02 08:50:49;;;;;;;6.13;1.05;;;13.00;99.90;;;;;;5106035;28;20414;-43
2022/11/02 08:53:15;;;;;;;21.30;1.63;;;13.10;99.90;;;;;;5102651;28;20035;-41
2022/11/02 08:55:41;;;;;;;11.63;1.42;;;13.10;99.90;;;;;;5115195;28;20490;-40
2022/11/02 08:58:06;;;;;;;5.20;1.25;;;13.20;99.90;;;;;;5122404;27;20106;-40
2022/11/02 09:00:33;;;;;;;5.55;1.58;;;13.20;99.90;;;;;;5112818;28;20062;-40
2022/11/02 09:03:06;;;;;;;6.32;1.02;;;13.30;99.90;;;;;;5128217;27;20106;-45
2022/11/02 09:05:37;;;;;;;12.15;1.50;;;13.30;99.90;;;;;;5116055;27;20027;-57
2022/11/02 09:08:05;;;;;;;11.82;2.35;;;13.40;99.90;;;;;;5105308;28;20052;-41
2022/11/02 09:10:34;;;;;;;7.18;1.17;;;13.50;99.90;;;;;;5114471;28;20024;-40
2022/11/02 09:13:00;;;;;;;6.03;0.98;;;13.50;99.90;;;;;;5108899;28;20491;-40
2022/11/02 09:15:27;;;;;;;8.63;1.60;;;13.50;99.90;;;;;;5094254;28;20103;-40
2022/11/02 09:17:55;;;;;;;3.65;1.08;;;13.60;99.90;;;;;;5097763;27;20016;-40
2022/11/02 09:20:21;;;;;;;5.90;1.23;;;13.60;99.90;;;;;;5093047;27;20471;-40
2022/11/02 09:22:47;;;;;;;4.65;1.20;;;13.60;99.90;;;;;;5108736;28;20432;-43
2022/11/02 09:25:14;;;;;;;18.42;2.65;;;13.70;99.90;;;;;;5098732;28;20042;-41
2022/11/02 09:27:41;;;;;;;8.10;1.35;;;13.80;99.90;;;;;;5102453;27;20040;-40
2022/11/02 09:30:08;;;;;;;10.48;1.85;;;13.90;99.90;;;;;;5098838;28;20541;-47
2022/11/02 09:32:34;;;;;;;3.90;0.80;;;13.80;99.90;;;;;;5111852;28;20135;-34
2022/11/02 09:35:02;;;;;;;9.30;1.40;;;13.80;99.90;;;;;;5103081;28;20047;-41
2022/11/02 09:37:28;;;;;;;7.13;1.13;;;13.80;99.90;;;;;;5098004;28;20514;-39
2022/11/02 09:39:54;;;;;;;11.35;0.85;;;13.70;99.90;;;;;;5098662;28;20015;-39
2022/11/02 09:42:42;;;;;;;14.30;1.67;;;13.70;99.90;;;;;;5114471;28;20023;-38
2022/11/02 09:45:13;;;;;;;8.68;1.23;;;13.70;99.90;;;;;;5114250;28;20414;-40
2022/11/02 09:47:56;;;;;;;4.22;1.02;;;13.70;99.90;;;;;;5111745;28;20539;-42
2022/11/02 09:50:27;;;;;;;7.38;1.40;;;13.70;99.90;;;;;;5109183;28;20372;-42
2022/11/02 09:52:58;;;;;;;7.05;1.50;;;13.80;99.90;;;;;;5113707;28;20333;-41
2022/11/02 09:55:30;;;;;;;7.68;1.25;;;13.80;99.90;;;;;;5103770;28;20460;-41
2022/11/02 09:58:06;;;;;;;8.50;1.70;;;13.80;99.90;;;;;;5103765;28;20022;-41
2022/11/02 10:00:36;;;;;;;11.27;1.10;;;13.90;99.90;;;;;;5094592;28;20042;-40
2022/11/02 10:03:27;;;;;;;15.35;1.38;;;14.00;99.90;;;;;;5109807;27;20020;-43
2022/11/02 10:06:01;;;;;;;16.52;3.15;;;14.00;99.90;;;;;;5113888;28;20505;-39
2022/11/02 10:08:32;;;;;;;7.18;0.77;;;14.10;99.90;;;;;;5117070;27;20024;-42
2022/11/02 10:11:21;;;;;;;11.60;1.55;;;14.20;99.90;;;;;;5099142;28;20497;-39
2022/11/02 10:14:04;;;;;;;5.70;1.15;;;14.20;99.90;;;;;;5095351;28;20550;-39
2022/11/02 10:16:36;;;;;;;13.98;2.08;;;14.30;99.90;;;;;;5110529;28;20028;-39
2022/11/02 10:19:04;;;;;;;8.55;1.40;;;14.30;99.90;;;;;;5106479;28;20024;-40
2022/11/02 10:21:37;;;;;;;9.13;1.15;;;14.30;99.90;;;;;;5095898;28;20536;-40
2022/11/02 10:24:28;;;;;;;9.60;1.48;;;14.20;99.90;;;;;;5099526;28;20024;-41
2022/11/02 10:27:04;;;;;;;6.22;0.95;;;14.20;99.90;;;;;;5086974;28;20527;-42
2022/11/02 10:29:43;;;;;;;4.43;0.80;;;14.40;99.90;;;;;;5094238;28;20213;-39
2022/11/02 10:32:11;;;;;;;8.05;1.08;;;14.50;99.90;;;;;;5092163;28;20040;-41
2022/11/02 10:34:37;;;;;;;;;;;14.80;99.90;;;;;;5101921;28;20032;-40
2022/11/02 10:37:21;;;;;;;6.85;1.20;;;14.90;99.90;;;;;;5093180;28;20356;-39
2022/11/02 10:40:17;;;;;;;6.47;1.15;;;15.00;99.90;;;;;;5099644;28;20085;-41
2022/11/02 10:43:04;;;;;;;4.63;0.90;;;15.00;99.90;;;;;;5103889;28;20439;-40
2022/11/02 10:45:55;;;;;;;14.25;1.00;;;15.00;99.90;;;;;;5094885;28;20024;-43
2022/11/02 10:48:31;;;;;;;6.40;1.17;;;15.00;99.90;;;;;;5095368;28;20047;-40
2022/11/02 10:51:08;;;;;;;7.32;1.38;;;14.90;99.90;;;;;;5098770;28;20107;-42
2022/11/02 10:53:42;;;;;;;4.45;0.95;;;14.90;99.90;;;;;;5110465;28;20055;-42
2022/11/02 10:56:14;;;;;;;13.13;1.05;;;15.00;99.90;;;;;;5094967;28;20391;-43
2022/11/02 10:58:57;;;;;;;4.63;1.02;;;15.00;99.90;;;;;;5101470;28;20036;-41
2022/11/02 11:01:23;;;;;;;8.43;1.63;;;15.10;99.90;;;;;;5108965;28;20555;-41
2022/11/02 11:03:57;;;;;;;9.27;1.30;;;15.20;99.90;;;;;;5103209;28;20028;-43
2022/11/02 11:06:42;;;;;;;8.70;1.60;;;15.30;99.90;;;;;;5092545;28;20031;-41
2022/11/02 11:09:29;;;;;;;11.05;1.42;;;15.20;99.90;;;;;;5093029;28;20384;-39
2022/11/02 11:11:58;;;;;;;12.73;0.90;;;15.20;99.90;;;;;;5093117;28;20025;-58
2022/11/02 11:14:28;;;;;;;7.45;1.23;;;15.20;99.90;;;;;;5092970;28;20128;-41
2022/11/02 11:16:58;;;;;;;7.80;1.25;;;15.00;99.90;;;;;;5092434;28;20539;-41
2022/11/02 11:19:37;;;;;;;4.28;1.90;;;15.00;99.90;;;;;;5092080;28;20464;-40
2022/11/02 11:22:23;;;;;;;9.20;1.48;;;14.90;99.90;;;;;;5093415;28;20476;-41
2022/11/02 11:24:49;;;;;;;9.32;1.23;;;15.00;99.90;;;;;;5094217;28;20067;-53
2022/11/02 11:27:17;;;;;;;4.90;1.10;;;15.00;99.90;;;;;;5108668;28;20028;-40
2022/11/02 11:29:54;;;;;;;12.43;2.50;;;15.00;99.90;;;;;;5112895;28;20024;-42
2022/11/02 11:32:28;;;;;;;16.25;1.27;;;15.10;99.90;;;;;;5113201;28;20379;-40
2022/11/02 11:35:02;;;;;;;2.92;1.10;;;15.10;99.90;;;;;;5099091;28;20115;-33
2022/11/02 11:37:28;;;;;;;13.70;2.30;;;15.10;99.90;;;;;;5092356;28;20111;-33
2022/11/02 11:40:03;;;;;;;12.00;1.25;;;15.20;99.90;;;;;;5091940;28;20024;-36
2022/11/02 11:42:33;;;;;;;10.82;2.35;;;15.20;99.90;;;;;;5092250;28;20047;-42
2022/11/02 11:45:06;;;;;;;14.35;1.58;;;15.10;99.90;;;;;;5107250;28;20024;-32
2022/11/02 11:47:37;;;;;;;15.05;1.42;;;15.10;99.90;;;;;;5112715;28;20032;-32
2022/11/02 11:50:22;;;;;;;7.00;1.98;;;15.10;99.90;;;;;;5112650;28;20039;-38
2022/11/02 11:53:06;;;;;;;8.45;1.35;;;15.10;99.90;;;;;;5112685;28;20089;-33
2022/11/02 11:55:33;;;;;;;15.93;1.55;;;15.20;99.90;;;;;;5096700;28;20115;-33
2022/11/02 11:58:13;;;;;;;13.18;2.38;;;15.30;99.90;;;;;;5096090;28;20020;-31
2022/11/02 12:00:39;;;;;;;14.20;1.85;;;15.20;99.90;;;;;;5095739;28;20553;-62
2022/11/02 12:03:10;;;;;;;6.38;1.20;;;15.20;99.90;;;;;;5095209;28;20012;-34
2022/11/02 12:05:41;;;;;;;11.20;1.63;;;15.30;99.90;;;;;;5095763;28;20120;-35
2022/11/02 12:08:41;;;;;;;8.63;1.40;;;15.40;99.90;;;;;;5097701;27;20020;-32
2022/11/02 12:11:27;;;;;;;7.18;1.15;;;15.40;99.90;;;;;;5095968;28;20103;-34
2022/11/02 12:13:55;;;;;;;12.30;1.42;;;15.50;99.90;;;;;;5095990;28;20384;-42
2022/11/02 12:16:27;;;;;;;12.63;1.92;;;15.40;99.90;;;;;;5096015;28;20032;-58
2022/11/02 12:19:15;;;;;;;9.23;1.48;;;15.50;99.90;;;;;;5096301;28;20522;-43
2022/11/02 12:22:08;;;;;;;10.45;1.73;;;15.30;99.90;;;;;;5101293;28;20047;-39
2022/11/02 12:24:53;;;;;;;7.20;1.27;;;15.30;99.90;;;;;;5094061;28;20232;-40
2022/11/02 12:27:51;;;;;;;18.05;1.58;;;15.40;99.90;;;;;;5095749;28;20384;-35
2022/11/02 12:30:19;;;;;;;3.30;0.93;;;15.40;99.90;;;;;;5096073;28;20488;-35
2022/11/02 12:32:45;;;;;;;;;;;15.40;99.90;;;;;;5094383;28;20491;-33
2022/11/02 12:35:33;;;;;;;9.05;1.25;;;15.50;99.90;;;;;;5096742;28;19911;-31
2022/11/02 12:38:17;;;;;;;12.52;1.40;;;15.50;99.90;;;;;;5097562;28;20375;-34
2022/11/02 12:40:48;;;;;;;18.38;2.60;;;15.50;99.90;;;;;;5098271;28;20023;-33
2022/11/02 12:43:35;;;;;;;6.50;1.10;;;15.50;99.90;;;;;;5094745;28;20016;-31
2022/11/02 12:46:29;;;;;;;8.02;1.30;;;15.50;99.90;;;;;;5094370;28;20457;-32
2022/11/02 12:49:19;;;;;;;9.18;1.52;;;15.50;99.90;;;;;;5095044;28;20050;-30
2022/11/02 12:52:08;;;;;;;6.07;0.98;;;15.60;99.90;;;;;;5094994;28;20032;-32
2022/11/02 12:54:49;;;;;;;15.23;1.92;;;15.60;99.90;;;;;;5094133;28;20036;-34
2022/11/02 12:57:21;;;;;;;5.10;1.00;;;15.60;99.90;;;;;;5098451;28;20024;-35
2022/11/02 12:59:53;;;;;;;10.27;1.50;;;15.60;99.90;;;;;;5094333;28;20450;-32
2022/11/02 13:02:26;;;;;;;3.92;1.08;;;15.60;99.90;;;;;;5094698;28;20032;-35
2022/11/02 13:04:58;;;;;;;3.45;0.57;;;15.60;99.90;;;;;;5093892;28;20028;-31
2022/11/02 13:07:43;;;;;;;10.02;1.73;;;15.70;99.90;;;;;;5094295;28;20123;-33
2022/11/02 13:10:20;;;;;;;9.48;1.60;;;15.80;99.90;;;;;;5094866;28;20496;-34
2022/11/02 13:12:50;;;;;;;10.52;2.50;;;15.90;99.90;;;;;;5094459;28;20031;-33
2022/11/02 13:15:21;;;;;;;15.00;1.50;;;15.90;99.90;;;;;;5094448;28;20032;-40
2022/11/02 13:17:55;;;;;;;10.05;1.13;;;16.00;99.90;;;;;;5092746;28;20040;-42
2022/11/02 13:20:26;;;;;;;5.55;1.27;;;16.00;99.90;;;;;;5094484;28;20480;-39